createdAt,value
2019-02-20T00:00:51.970Z,79.49
2019-02-20T00:03:21.547Z,77.09
2019-02-20T00:05:57.054Z,77.59
2019-02-20T00:08:26.130Z,77.70
2019-02-20T00:10:55.283Z,77.99
2019-02-20T00:13:24.409Z,78.68
2019-02-20T00:15:53.503Z,76.37
2019-02-20T00:18:23.852Z,76.24
2019-02-20T00:20:52.759Z,77.35
2019-02-20T00:23:21.872Z,78.47
2019-02-20T00:25:50.732Z,78.90
2019-02-20T00:28:19.601Z,79.36
2019-02-20T00:30:48.496Z,79.34
2019-02-20T00:33:17.319Z,79.82
2019-02-20T00:35:46.331Z,80.08
2019-02-20T00:38:15.330Z,80.47
2019-02-20T00:40:44.464Z,80.72
2019-02-20T00:43:13.377Z,81.11
2019-02-20T00:45:58.026Z,81.26
2019-02-20T00:48:57.925Z,80.71
2019-02-20T00:51:37.117Z,80.31
2019-02-20T00:54:09.193Z,79.99
2019-02-20T00:56:37.740Z,80.02
2019-02-20T00:59:06.634Z,79.16
2019-02-20T01:01:35.522Z,78.90
2019-02-20T01:04:05.163Z,79.55
2019-02-20T01:06:34.104Z,80.07
2019-02-20T01:09:03.116Z,80.04
2019-02-20T01:11:31.985Z,80.19
2019-02-20T01:14:01.092Z,80.28
2019-02-20T01:16:30.013Z,80.93
2019-02-20T01:18:58.889Z,81.29
2019-02-20T01:21:28.030Z,81.73
2019-02-20T01:23:57.233Z,81.83
2019-02-20T01:26:26.371Z,81.36
2019-02-20T01:28:55.261Z,79.42
2019-02-20T01:31:24.357Z,79.93
2019-02-20T01:33:53.501Z,78.94
2019-02-20T01:36:22.339Z,79.21
2019-02-20T01:38:51.350Z,80.23
2019-02-20T01:41:20.192Z,80.85
2019-02-20T01:43:49.072Z,81.01
2019-02-20T01:46:17.980Z,81.08
2019-02-20T01:48:46.992Z,81.46
2019-02-20T01:51:15.926Z,81.58
2019-02-20T01:53:44.716Z,81.31
2019-02-20T01:56:13.699Z,80.79
2019-02-20T01:58:42.572Z,80.34
2019-02-20T02:01:11.580Z,80.60
2019-02-20T02:03:40.635Z,80.68
2019-02-20T02:06:12.714Z,80.68
2019-02-20T02:08:41.618Z,80.35
2019-02-20T02:11:10.749Z,81.15
2019-02-20T02:13:39.846Z,81.40
2019-02-20T02:16:08.845Z,81.50
2019-02-20T02:18:37.700Z,81.58
2019-02-20T02:21:06.760Z,81.73
2019-02-20T02:23:40.133Z,81.50
2019-02-20T02:26:10.946Z,81.47
2019-02-20T02:28:39.143Z,81.74
2019-02-20T02:31:08.150Z,81.89
2019-02-20T02:33:37.090Z,82.01
2019-02-20T02:36:05.998Z,82.44
2019-02-20T02:38:35.120Z,82.44
2019-02-20T02:41:04.077Z,82.52
2019-02-20T02:43:32.855Z,82.56
2019-02-20T02:46:01.910Z,82.63
2019-02-20T02:48:30.690Z,82.75
2019-02-20T02:50:59.518Z,82.83
2019-02-20T02:53:30.893Z,83.01
2019-02-20T02:55:59.259Z,83.10
2019-02-20T02:58:28.304Z,83.14
2019-02-20T03:00:57.130Z,83.15
2019-02-20T03:03:28.770Z,83.05
2019-02-20T03:05:57.901Z,83.34
2019-02-20T03:08:26.696Z,83.65
2019-02-20T03:10:55.609Z,83.80
2019-02-20T03:13:24.490Z,83.83
2019-02-20T03:15:53.485Z,83.87
2019-02-20T03:18:22.493Z,83.95
2019-02-20T03:20:51.393Z,84.00
2019-02-20T03:23:20.422Z,83.93
2019-02-20T03:25:49.251Z,83.97
2019-02-20T03:28:18.049Z,83.66
2019-02-20T03:30:46.921Z,83.41
2019-02-20T03:33:15.701Z,83.39
2019-02-20T03:35:47.536Z,83.50
2019-02-20T03:38:16.397Z,83.78
2019-02-20T03:40:45.394Z,83.78
2019-02-20T03:43:14.398Z,83.67
2019-02-20T03:45:43.250Z,83.66
2019-02-20T03:48:12.079Z,83.73
2019-02-20T03:50:41.005Z,84.04
2019-02-20T03:53:09.872Z,84.01
2019-02-20T03:55:38.925Z,84.06
2019-02-20T03:58:07.696Z,84.01
2019-02-20T04:00:36.815Z,84.11
2019-02-20T04:03:05.702Z,84.17
2019-02-20T04:05:34.592Z,84.17
2019-02-20T04:08:03.690Z,84.07
2019-02-20T04:10:32.545Z,83.95
2019-02-20T04:13:01.466Z,83.63
2019-02-20T04:15:30.361Z,83.16
2019-02-20T04:17:59.265Z,82.99
2019-02-20T04:20:28.213Z,82.76
2019-02-20T04:22:57.029Z,82.68
2019-02-20T04:25:25.824Z,82.85
2019-02-20T04:27:54.766Z,82.55
2019-02-20T04:30:23.658Z,80.41
2019-02-20T04:32:52.581Z,80.69
2019-02-20T04:35:21.613Z,81.37
2019-02-20T04:37:50.454Z,81.94
2019-02-20T04:40:19.431Z,82.37
2019-02-20T04:42:48.319Z,82.68
2019-02-20T04:45:17.236Z,82.30
2019-02-20T04:47:46.109Z,82.47
2019-02-20T04:50:15.057Z,81.41
2019-02-20T04:52:44.022Z,81.65
2019-02-20T04:55:12.865Z,81.82
2019-02-20T04:57:41.728Z,82.12
2019-02-20T05:00:12.424Z,82.37
2019-02-20T05:02:41.436Z,82.42
2019-02-20T05:05:10.522Z,82.25
2019-02-20T05:07:39.523Z,82.41
2019-02-20T05:10:09.593Z,82.51
2019-02-20T05:12:38.635Z,82.51
2019-02-20T05:15:07.679Z,82.40
2019-02-20T05:17:36.692Z,82.15
2019-02-20T05:20:06.006Z,81.58
2019-02-20T05:22:34.812Z,81.60
2019-02-20T05:25:03.804Z,81.74
2019-02-20T05:27:32.668Z,82.13
2019-02-20T05:30:01.438Z,82.34
2019-02-20T05:32:30.320Z,81.84
2019-02-20T05:34:59.116Z,82.30
2019-02-20T05:37:28.140Z,82.31
2019-02-20T05:39:57.414Z,81.63
2019-02-20T05:42:26.313Z,81.93
2019-02-20T05:44:55.204Z,82.03
2019-02-20T05:47:24.080Z,82.22
2019-02-20T05:49:52.912Z,82.51
2019-02-20T05:52:21.861Z,82.66
2019-02-20T05:54:50.790Z,82.74
2019-02-20T05:57:19.797Z,82.66
2019-02-20T05:59:48.695Z,82.74
2019-02-20T06:02:17.661Z,82.93
2019-02-20T06:04:46.597Z,83.10
2019-02-20T06:07:15.753Z,83.18
2019-02-20T06:09:44.742Z,83.16
2019-02-20T06:12:13.729Z,83.09
2019-02-20T06:14:42.624Z,83.24
2019-02-20T06:17:11.535Z,83.26
2019-02-20T06:19:40.582Z,83.09
2019-02-20T06:22:09.602Z,83.25
2019-02-20T06:25:00.409Z,83.35
2019-02-20T06:27:29.212Z,83.32
2019-02-20T06:29:58.170Z,83.42
2019-02-20T06:32:27.031Z,83.47
2019-02-20T06:34:55.939Z,83.60
2019-02-20T06:37:24.905Z,83.76
2019-02-20T06:39:53.806Z,83.70
2019-02-20T06:42:22.812Z,83.32
2019-02-20T06:44:51.627Z,83.00
2019-02-20T06:47:20.613Z,82.90
2019-02-20T06:49:49.649Z,82.45
2019-02-20T06:52:18.611Z,81.74
2019-02-20T06:54:53.932Z,81.59
2019-02-20T06:57:18.152Z,80.98
2019-02-20T06:59:47.426Z,80.53
2019-02-20T07:02:16.544Z,80.54
2019-02-20T07:05:22.233Z,80.81
2019-02-20T07:08:12.915Z,80.87
2019-02-20T07:11:09.098Z,80.72
2019-02-20T07:13:45.086Z,80.85
2019-02-20T07:16:53.308Z,80.62
2019-02-20T07:19:34.768Z,80.63
2019-02-20T07:22:36.131Z,80.39
2019-02-20T07:25:36.400Z,79.85
2019-02-20T07:28:39.786Z,78.99
2019-02-20T07:31:08.840Z,78.73
2019-02-20T07:33:37.633Z,78.98
2019-02-20T07:36:06.723Z,78.04
2019-02-20T07:38:35.548Z,77.39
2019-02-20T07:41:04.395Z,77.17
2019-02-20T07:43:33.438Z,76.18
2019-02-20T07:46:02.438Z,76.45
2019-02-20T07:48:31.475Z,75.94
2019-02-20T07:51:00.866Z,74.96
2019-02-20T07:53:29.845Z,74.96
2019-02-20T07:55:58.676Z,74.80
2019-02-20T07:58:27.471Z,75.24
2019-02-20T08:00:56.395Z,75.56
2019-02-20T08:03:25.313Z,75.23
2019-02-20T08:05:54.222Z,75.32
2019-02-20T08:08:23.296Z,75.08
2019-02-20T08:10:52.142Z,74.59
2019-02-20T08:13:21.026Z,74.59
2019-02-20T08:15:49.895Z,74.55
2019-02-20T08:18:18.799Z,74.52
2019-02-20T08:20:47.753Z,74.43
2019-02-20T08:23:16.792Z,74.46
2019-02-20T08:25:45.604Z,73.62
2019-02-20T08:28:14.500Z,74.41
2019-02-20T08:30:43.522Z,73.50
2019-02-20T08:33:12.482Z,73.11
2019-02-20T08:35:41.841Z,73.57
2019-02-20T08:38:10.723Z,73.49
2019-02-20T08:40:39.742Z,73.23
2019-02-20T08:43:08.688Z,72.53
2019-02-20T08:45:37.622Z,71.99
2019-02-20T08:48:06.589Z,72.78
2019-02-20T08:50:35.603Z,71.74
2019-02-20T08:53:04.606Z,72.04
2019-02-20T08:55:33.610Z,71.22
2019-02-20T08:58:02.821Z,70.99
2019-02-20T09:00:31.975Z,69.69
2019-02-20T09:03:00.932Z,67.03
2019-02-20T09:05:29.859Z,66.47
2019-02-20T09:07:58.648Z,66.20
2019-02-20T09:10:27.675Z,66.00
2019-02-20T09:12:56.674Z,65.57
2019-02-20T09:15:25.634Z,64.51
2019-02-20T09:17:55.392Z,63.75
2019-02-20T09:20:24.410Z,63.81
2019-02-20T09:22:53.220Z,62.96
2019-02-20T09:25:22.133Z,63.72
2019-02-20T09:27:50.941Z,63.89
2019-02-20T09:30:28.105Z,63.15
2019-02-20T09:32:50.617Z,63.10
2019-02-20T09:35:19.630Z,61.95
2019-02-20T09:37:48.818Z,61.33
2019-02-20T09:40:17.847Z,60.59
2019-02-20T09:42:47.592Z,60.71
2019-02-20T09:45:16.898Z,60.86
2019-02-20T09:47:45.891Z,61.04
2019-02-20T09:50:15.424Z,61.12
2019-02-20T09:52:52.019Z,61.15
2019-02-20T09:55:15.040Z,60.52
2019-02-20T09:57:44.043Z,59.71
2019-02-20T10:00:14.265Z,59.73
2019-02-20T10:02:43.277Z,59.57
2019-02-20T10:05:12.269Z,60.35
2019-02-20T10:07:41.200Z,60.31
2019-02-20T10:10:10.392Z,61.10
2019-02-20T10:12:39.447Z,61.24
2019-02-20T10:15:09.657Z,61.23
2019-02-20T10:17:38.559Z,61.81
2019-02-20T10:20:08.898Z,61.81
2019-02-20T10:22:37.774Z,62.56
2019-02-20T10:25:06.932Z,62.31
2019-02-20T10:27:35.903Z,62.53
2019-02-20T10:30:05.693Z,62.88
2019-02-20T10:32:34.670Z,62.74
2019-02-20T10:35:03.608Z,62.17
2019-02-20T10:37:32.725Z,61.91
2019-02-20T10:40:01.744Z,61.18
2019-02-20T10:42:30.737Z,60.36
2019-02-20T10:44:59.783Z,57.54
2019-02-20T10:47:28.725Z,57.50
2019-02-20T10:49:57.712Z,56.99
2019-02-20T10:52:26.792Z,56.81
2019-02-20T10:54:57.949Z,56.76
2019-02-20T10:57:26.668Z,56.81
2019-02-20T10:59:55.634Z,57.21
2019-02-20T11:02:24.799Z,57.25
2019-02-20T11:04:53.744Z,57.25
2019-02-20T11:07:22.784Z,57.42
2019-02-20T11:09:51.943Z,56.73
2019-02-20T11:12:21.086Z,56.78
2019-02-20T11:14:50.174Z,57.00
2019-02-20T11:17:19.301Z,56.94
2019-02-20T11:19:48.171Z,57.34
2019-02-20T11:22:17.075Z,56.99
2019-02-20T11:24:46.074Z,56.64
2019-02-20T11:27:15.184Z,56.64
2019-02-20T11:29:44.518Z,56.25
2019-02-20T11:32:13.570Z,56.60
2019-02-20T11:34:42.921Z,55.69
2019-02-20T11:37:12.164Z,54.96
2019-02-20T11:39:41.179Z,54.36
2019-02-20T11:42:10.243Z,54.37
2019-02-20T11:44:39.283Z,54.24
2019-02-20T11:47:08.285Z,55.54
2019-02-20T11:49:38.287Z,55.15
2019-02-20T11:52:07.375Z,56.06
2019-02-20T11:54:36.459Z,55.17
2019-02-20T11:57:05.670Z,54.63
2019-02-20T11:59:34.946Z,53.64
2019-02-20T12:02:04.056Z,54.03
2019-02-20T12:04:33.017Z,52.69
2019-02-20T12:07:01.978Z,53.17
2019-02-20T12:09:30.973Z,52.96
2019-02-20T12:12:00.095Z,52.91
2019-02-20T12:14:29.145Z,53.41
2019-02-20T12:16:58.227Z,53.54
2019-02-20T12:19:27.368Z,54.90
2019-02-20T12:21:56.339Z,52.65
2019-02-20T12:24:25.396Z,52.77
2019-02-20T12:26:54.269Z,52.79
2019-02-20T12:29:23.838Z,51.66
2019-02-20T12:31:52.892Z,51.12
2019-02-20T12:34:21.860Z,50.47
2019-02-20T12:36:50.926Z,49.75
2019-02-20T12:39:19.948Z,49.02
2019-02-20T12:41:49.035Z,50.64
2019-02-20T12:44:18.086Z,50.70
2019-02-20T12:46:47.774Z,50.49
2019-02-20T12:49:17.044Z,50.40
2019-02-20T12:51:46.149Z,49.44
2019-02-20T12:54:15.286Z,49.81
2019-02-20T12:56:44.415Z,50.07
2019-02-20T12:59:13.353Z,50.46
2019-02-20T13:01:42.375Z,49.59
2019-02-20T13:04:11.513Z,50.03
2019-02-20T13:06:40.550Z,49.80
2019-02-20T13:09:12.673Z,49.75
2019-02-20T13:11:41.696Z,50.32
2019-02-20T13:14:10.715Z,49.95
2019-02-20T13:16:39.627Z,50.25
2019-02-20T13:19:08.546Z,50.55
2019-02-20T13:21:37.543Z,50.36
2019-02-20T13:24:06.666Z,50.05
2019-02-20T13:26:35.702Z,49.21
2019-02-20T13:29:04.782Z,48.34
2019-02-20T13:31:33.755Z,47.59
2019-02-20T13:34:02.864Z,46.75
2019-02-20T13:36:31.845Z,46.10
2019-02-20T13:39:00.881Z,46.21
2019-02-20T13:41:30.161Z,46.09
2019-02-20T13:43:59.150Z,45.63
2019-02-20T13:46:28.137Z,45.89
2019-02-20T13:48:57.149Z,45.74
2019-02-20T13:51:26.358Z,46.18
2019-02-20T13:53:55.483Z,46.20
2019-02-20T13:56:24.581Z,45.82
2019-02-20T13:58:53.502Z,46.15
2019-02-20T14:01:22.582Z,46.54
2019-02-20T14:03:53.292Z,46.29
2019-02-20T14:06:22.333Z,45.61
2019-02-20T14:08:51.714Z,45.50
2019-02-20T14:11:20.735Z,45.80
2019-02-20T14:13:49.848Z,45.80
2019-02-20T14:16:19.051Z,45.35
2019-02-20T14:18:48.098Z,45.34
2019-02-20T14:21:17.180Z,46.27
2019-02-20T14:23:46.609Z,46.40
2019-02-20T14:26:15.643Z,46.21
2019-02-20T14:28:44.563Z,45.46
2019-02-20T14:31:13.672Z,45.45
2019-02-20T14:33:42.719Z,44.88
2019-02-20T14:36:11.814Z,45.74
2019-02-20T14:38:40.803Z,46.02
2019-02-20T14:41:09.943Z,45.73
2019-02-20T14:43:39.281Z,45.42
2019-02-20T14:46:08.354Z,45.45
2019-02-20T14:48:37.353Z,45.49
2019-02-20T14:51:06.523Z,45.30
2019-02-20T14:53:35.374Z,44.81
2019-02-20T14:56:04.698Z,44.04
2019-02-20T14:58:33.664Z,44.09
2019-02-20T15:01:03.010Z,43.37
2019-02-20T15:03:32.228Z,43.41
2019-02-20T15:06:01.182Z,42.92
2019-02-20T15:08:30.159Z,43.93
2019-02-20T15:10:59.252Z,44.33
2019-02-20T15:13:28.247Z,44.00
2019-02-20T15:15:57.330Z,43.87
2019-02-20T15:18:26.233Z,43.70
2019-02-20T15:20:55.309Z,43.82
2019-02-20T15:23:24.263Z,44.11
2019-02-20T15:25:53.259Z,44.45
2019-02-20T15:28:22.540Z,44.62
2019-02-20T15:30:51.551Z,44.67
2019-02-20T15:33:20.667Z,45.01
2019-02-20T15:35:51.298Z,44.80
2019-02-20T15:38:20.429Z,45.12
2019-02-20T15:40:49.427Z,45.75
2019-02-20T15:43:18.896Z,45.85
2019-02-20T15:45:47.842Z,45.48
2019-02-20T15:48:23.060Z,45.12
2019-02-20T15:50:47.459Z,45.61
2019-02-20T15:53:16.482Z,45.29
2019-02-20T15:55:45.839Z,45.31
2019-02-20T15:58:14.978Z,45.56
2019-02-20T16:00:44.147Z,45.85
2019-02-20T16:03:13.109Z,46.05
2019-02-20T16:05:42.198Z,46.20
2019-02-20T16:08:11.870Z,46.44
2019-02-20T16:10:40.817Z,46.42
2019-02-20T16:13:09.867Z,46.48
2019-02-20T16:15:39.302Z,46.40
2019-02-20T16:18:08.337Z,46.23
2019-02-20T16:20:37.338Z,45.97
2019-02-20T16:23:06.266Z,46.20
2019-02-20T16:25:35.259Z,46.24
2019-02-20T16:28:04.326Z,46.54
2019-02-20T16:30:33.218Z,47.00
2019-02-20T16:33:02.213Z,46.96
2019-02-20T16:35:31.068Z,47.32
2019-02-20T16:37:59.962Z,47.42
2019-02-20T16:40:28.951Z,47.98
2019-02-20T16:42:57.742Z,48.94
2019-02-20T16:45:26.803Z,48.82
2019-02-20T16:47:55.989Z,49.42
2019-02-20T16:50:24.972Z,50.30
2019-02-20T16:52:53.915Z,50.57
2019-02-20T16:55:23.051Z,50.95
2019-02-20T16:57:56.809Z,51.63
2019-02-20T17:00:23.179Z,52.80
2019-02-20T17:02:52.517Z,53.50
2019-02-20T17:05:21.603Z,53.89
2019-02-20T17:07:50.799Z,54.10
2019-02-20T17:10:20.169Z,54.23
2019-02-20T17:12:49.152Z,54.55
2019-02-20T17:15:18.295Z,54.40
2019-02-20T17:17:47.766Z,54.99
2019-02-20T17:20:17.783Z,55.10
2019-02-20T17:22:48.191Z,55.09
2019-02-20T17:25:17.241Z,56.06
2019-02-20T17:27:46.213Z,56.58
2019-02-20T17:30:15.615Z,56.81
2019-02-20T17:32:45.015Z,56.94
2019-02-20T17:35:14.624Z,57.26
2019-02-20T17:37:43.585Z,57.48
2019-02-20T17:40:13.105Z,58.20
2019-02-20T17:42:42.102Z,58.77
2019-02-20T17:45:11.735Z,59.37
2019-02-20T17:47:40.785Z,60.65
2019-02-20T17:50:12.259Z,60.58
2019-02-20T17:52:41.169Z,60.60
2019-02-20T17:55:10.348Z,61.13
2019-02-20T17:57:39.193Z,61.17
2019-02-20T18:00:10.072Z,61.21
2019-02-20T18:02:38.967Z,60.83
2019-02-20T18:05:08.355Z,61.10
2019-02-20T18:07:37.364Z,60.85
2019-02-20T18:10:06.457Z,60.90
2019-02-20T18:12:35.446Z,61.01
2019-02-20T18:15:05.170Z,60.62
2019-02-20T18:17:33.960Z,61.15
2019-02-20T18:20:02.936Z,61.80
2019-02-20T18:22:31.810Z,61.93
2019-02-20T18:25:00.785Z,62.25
2019-02-20T18:27:29.684Z,61.54
2019-02-20T18:29:58.508Z,62.05
2019-02-20T18:32:27.511Z,62.19
2019-02-20T18:35:00.799Z,61.27
2019-02-20T18:37:29.906Z,61.83
2019-02-20T18:39:58.895Z,62.60
2019-02-20T18:42:27.819Z,63.36
2019-02-20T18:44:56.821Z,63.89
2019-02-20T18:47:25.629Z,63.66
2019-02-20T18:49:54.438Z,64.10
2019-02-20T18:52:23.454Z,64.48
2019-02-20T18:54:52.427Z,64.75
2019-02-20T18:57:32.432Z,65.78
2019-02-20T19:00:01.397Z,65.55
2019-02-20T19:02:30.276Z,66.07
2019-02-20T19:04:59.124Z,66.17
2019-02-20T19:07:28.161Z,66.61
2019-02-20T19:09:57.181Z,67.57
2019-02-20T19:12:48.370Z,67.36
2019-02-20T19:16:02.037Z,67.27
2019-02-20T19:19:08.893Z,67.47
2019-02-20T19:22:21.561Z,67.94
2019-02-20T19:25:36.151Z,68.21
2019-02-20T19:28:19.436Z,68.80
2019-02-20T19:31:24.332Z,69.21
2019-02-20T19:34:24.145Z,69.50
2019-02-20T19:37:22.458Z,68.72
2019-02-20T19:40:13.235Z,69.08
2019-02-20T19:43:03.970Z,69.40
2019-02-20T19:46:13.292Z,69.45
2019-02-20T19:49:30.910Z,69.44
2019-02-20T19:52:36.145Z,70.00
2019-02-20T19:55:48.947Z,70.10
2019-02-20T19:58:43.537Z,70.31
2019-02-20T20:01:44.676Z,69.90
2019-02-20T20:04:57.490Z,70.12
2019-02-20T20:08:21.864Z,71.32
2019-02-20T20:11:06.504Z,71.68
2019-02-20T20:13:47.739Z,71.65
2019-02-20T20:16:40.799Z,72.17
2019-02-20T20:19:34.005Z,72.36
2019-02-20T20:22:47.777Z,72.89
2019-02-20T20:25:38.935Z,72.99
2019-02-20T20:28:45.172Z,73.37
2019-02-20T20:32:13.648Z,73.76
2019-02-20T20:35:06.014Z,73.32
2019-02-20T20:38:00.635Z,73.91
2019-02-20T20:41:04.312Z,74.31
2019-02-20T20:44:01.342Z,73.19
2019-02-20T20:47:20.461Z,73.34
2019-02-20T20:50:02.521Z,73.79
2019-02-20T20:53:27.725Z,74.14
2019-02-20T20:56:40.827Z,74.05
2019-02-20T20:59:40.269Z,74.15
2019-02-20T21:02:41.927Z,74.59
2019-02-20T21:05:48.381Z,74.18
2019-02-20T21:08:50.654Z,73.86
2019-02-20T21:11:57.773Z,74.71
2019-02-20T21:14:52.183Z,75.27
2019-02-20T21:18:06.115Z,76.30
2019-02-20T21:21:03.043Z,76.04
2019-02-20T21:24:12.877Z,76.30
2019-02-20T21:27:29.499Z,76.30
2019-02-20T21:30:38.421Z,76.04
2019-02-20T21:33:43.637Z,75.51
2019-02-20T21:36:37.193Z,75.51
2019-02-20T21:39:28.188Z,75.69
2019-02-20T21:42:28.855Z,75.82
2019-02-20T21:45:15.651Z,75.61
2019-02-20T21:48:13.577Z,75.70
2019-02-20T21:51:25.560Z,74.68
2019-02-20T21:54:17.851Z,73.40
2019-02-20T21:57:05.600Z,72.90
2019-02-20T22:00:10.436Z,73.68
2019-02-20T22:03:05.051Z,74.33
2019-02-20T22:06:12.084Z,74.09
2019-02-20T22:08:58.963Z,73.91
2019-02-20T22:11:50.191Z,73.92
2019-02-20T22:14:35.822Z,73.89
2019-02-20T22:17:49.148Z,73.63
2019-02-20T22:20:44.720Z,74.13
2019-02-20T22:23:24.431Z,73.96
2019-02-20T22:26:52.654Z,74.64
2019-02-20T22:30:01.476Z,74.75
2019-02-20T22:33:00.285Z,74.12
2019-02-20T22:36:06.381Z,74.93
2019-02-20T22:39:04.706Z,74.60
2019-02-20T22:42:22.097Z,74.66
2019-02-20T22:45:26.740Z,74.81
2019-02-20T22:48:29.564Z,75.10
2019-02-20T22:51:52.910Z,74.50
2019-02-20T22:54:55.754Z,74.07
2019-02-20T22:57:57.972Z,74.36
2019-02-20T23:01:02.889Z,74.99
2019-02-20T23:03:57.997Z,74.79
2019-02-20T23:07:29.370Z,75.30
2019-02-20T23:10:29.888Z,75.45
2019-02-20T23:13:36.101Z,75.98
2019-02-20T23:16:05.133Z,76.39
2019-02-20T23:18:34.147Z,76.43
2019-02-20T23:21:03.075Z,76.00
2019-02-20T23:23:31.966Z,75.71
2019-02-20T23:26:00.887Z,74.94
2019-02-20T23:28:31.071Z,75.50
2019-02-20T23:31:00.081Z,75.87
2019-02-20T23:33:28.883Z,75.28
2019-02-20T23:35:57.809Z,75.93
2019-02-20T23:38:26.812Z,76.23
2019-02-20T23:40:57.398Z,76.88
2019-02-20T23:43:26.543Z,76.52
2019-02-20T23:45:55.347Z,76.64
2019-02-20T23:48:24.205Z,76.92
2019-02-20T23:50:53.088Z,76.59
2019-02-20T23:53:21.904Z,75.67
2019-02-20T23:55:50.989Z,75.99
2019-02-20T23:58:19.947Z,76.65
